sensor_id;sensor_type;location;lat;lon;timestamp;P1;durP1;ratioP1;P2;durP2;ratioP2
4377;SDS011;2203;53.686;9.994;2023-02-15T00:01:04;83.70;;;34.90;;
4377;SDS011;2203;53.686;9.994;2023-02-15T00:03:33;82.67;;;37.20;;
4377;SDS011;2203;53.686;9.994;2023-02-15T00:05:59;75.57;;;34.47;;
4377;SDS011;2203;53.686;9.994;2023-02-15T00:08:24;73.07;;;32.30;;
4377;SDS011;2203;53.686;9.994;2023-02-15T00:10:49;72.70;;;33.70;;
4377;SDS011;2203;53.686;9.994;2023-02-15T00:13:15;79.63;;;34.67;;
4377;SDS011;2203;53.686;9.994;2023-02-15T00:15:40;82.13;;;33.50;;
4377;SDS011;2203;53.686;9.994;2023-02-15T00:18:05;68.53;;;31.00;;
4377;SDS011;2203;53.686;9.994;2023-02-15T00:20:31;83.60;;;34.30;;
4377;SDS011;2203;53.686;9.994;2023-02-15T00:22:56;87.47;;;35.47;;
4377;SDS011;2203;53.686;9.994;2023-02-15T00:25:22;73.20;;;33.67;;
4377;SDS011;2203;53.686;9.994;2023-02-15T00:27:47;76.93;;;32.70;;
4377;SDS011;2203;53.686;9.994;2023-02-15T00:30:13;86.83;;;35.50;;
4377;SDS011;2203;53.686;9.994;2023-02-15T00:32:38;108.43;;;35.90;;
4377;SDS011;2203;53.686;9.994;2023-02-15T00:35:04;89.73;;;36.63;;
4377;SDS011;2203;53.686;9.994;2023-02-15T00:37:29;81.40;;;35.10;;
4377;SDS011;2203;53.686;9.994;2023-02-15T00:39:55;72.97;;;33.07;;
4377;SDS011;2203;53.686;9.994;2023-02-15T00:42:20;90.77;;;35.73;;
4377;SDS011;2203;53.686;9.994;2023-02-15T00:44:45;83.07;;;36.83;;
4377;SDS011;2203;53.686;9.994;2023-02-15T00:47:11;98.60;;;34.37;;
4377;SDS011;2203;53.686;9.994;2023-02-15T00:49:36;81.83;;;34.50;;
4377;SDS011;2203;53.686;9.994;2023-02-15T00:52:01;84.03;;;35.37;;
4377;SDS011;2203;53.686;9.994;2023-02-15T00:54:27;89.60;;;36.30;;
4377;SDS011;2203;53.686;9.994;2023-02-15T00:56:52;90.50;;;36.40;;
4377;SDS011;2203;53.686;9.994;2023-02-15T00:59:18;106.67;;;37.57;;
4377;SDS011;2203;53.686;9.994;2023-02-15T01:01:43;77.83;;;34.03;;
4377;SDS011;2203;53.686;9.994;2023-02-15T01:04:08;91.50;;;37.30;;
4377;SDS011;2203;53.686;9.994;2023-02-15T01:06:34;87.57;;;35.87;;
4377;SDS011;2203;53.686;9.994;2023-02-15T01:08:59;104.43;;;39.50;;
4377;SDS011;2203;53.686;9.994;2023-02-15T01:11:24;97.63;;;38.10;;
4377;SDS011;2203;53.686;9.994;2023-02-15T01:13:51;88.13;;;36.67;;
4377;SDS011;2203;53.686;9.994;2023-02-15T01:16:17;91.57;;;36.63;;
4377;SDS011;2203;53.686;9.994;2023-02-15T01:18:43;94.83;;;36.23;;
4377;SDS011;2203;53.686;9.994;2023-02-15T01:21:10;98.43;;;39.60;;
4377;SDS011;2203;53.686;9.994;2023-02-15T01:23:36;94.17;;;37.77;;
4377;SDS011;2203;53.686;9.994;2023-02-15T01:26:02;82.83;;;35.80;;
4377;SDS011;2203;53.686;9.994;2023-02-15T01:28:28;93.37;;;35.17;;
4377;SDS011;2203;53.686;9.994;2023-02-15T01:30:53;89.97;;;36.20;;
4377;SDS011;2203;53.686;9.994;2023-02-15T01:33:18;98.37;;;36.77;;
4377;SDS011;2203;53.686;9.994;2023-02-15T01:35:44;87.57;;;36.37;;
4377;SDS011;2203;53.686;9.994;2023-02-15T01:38:11;83.50;;;37.27;;
4377;SDS011;2203;53.686;9.994;2023-02-15T01:40:37;88.80;;;35.93;;
4377;SDS011;2203;53.686;9.994;2023-02-15T01:43:07;87.67;;;35.37;;
4377;SDS011;2203;53.686;9.994;2023-02-15T01:45:35;96.87;;;35.70;;
4377;SDS011;2203;53.686;9.994;2023-02-15T01:50:37;92.83;;;37.90;;
4377;SDS011;2203;53.686;9.994;2023-02-15T01:53:16;85.80;;;36.40;;
4377;SDS011;2203;53.686;9.994;2023-02-15T01:55:50;86.27;;;36.70;;
4377;SDS011;2203;53.686;9.994;2023-02-15T01:58:29;122.67;;;35.93;;
4377;SDS011;2203;53.686;9.994;2023-02-15T02:00:56;100.93;;;36.20;;
4377;SDS011;2203;53.686;9.994;2023-02-15T02:03:27;83.97;;;34.60;;
4377;SDS011;2203;53.686;9.994;2023-02-15T02:06:01;92.47;;;33.87;;
4377;SDS011;2203;53.686;9.994;2023-02-15T02:08:26;95.50;;;37.53;;
4377;SDS011;2203;53.686;9.994;2023-02-15T02:10:52;96.97;;;36.37;;
4377;SDS011;2203;53.686;9.994;2023-02-15T02:13:18;94.17;;;37.00;;
4377;SDS011;2203;53.686;9.994;2023-02-15T02:24:23;81.67;;;34.47;;
4377;SDS011;2203;53.686;9.994;2023-02-15T02:43:59;88.30;;;33.93;;
4377;SDS011;2203;53.686;9.994;2023-02-15T02:46:30;86.47;;;33.33;;
4377;SDS011;2203;53.686;9.994;2023-02-15T02:49:00;78.70;;;34.23;;
4377;SDS011;2203;53.686;9.994;2023-02-15T02:51:26;134.30;;;36.70;;
4377;SDS011;2203;53.686;9.994;2023-02-15T02:53:52;83.10;;;34.87;;
4377;SDS011;2203;53.686;9.994;2023-02-15T02:56:37;122.70;;;34.50;;
4377;SDS011;2203;53.686;9.994;2023-02-15T03:01:46;74.37;;;32.93;;
4377;SDS011;2203;53.686;9.994;2023-02-15T03:04:17;86.00;;;33.77;;
4377;SDS011;2203;53.686;9.994;2023-02-15T03:06:52;90.03;;;34.00;;
4377;SDS011;2203;53.686;9.994;2023-02-15T03:09:23;98.03;;;35.90;;
4377;SDS011;2203;53.686;9.994;2023-02-15T03:11:59;90.07;;;35.70;;
4377;SDS011;2203;53.686;9.994;2023-02-15T03:14:26;117.80;;;34.07;;
4377;SDS011;2203;53.686;9.994;2023-02-15T03:16:52;83.40;;;35.20;;
4377;SDS011;2203;53.686;9.994;2023-02-15T03:19:23;75.93;;;32.37;;
4377;SDS011;2203;53.686;9.994;2023-02-15T03:21:56;78.47;;;32.73;;
4377;SDS011;2203;53.686;9.994;2023-02-15T03:25:14;75.33;;;32.10;;
4377;SDS011;2203;53.686;9.994;2023-02-15T03:27:16;79.57;;;33.60;;
4377;SDS011;2203;53.686;9.994;2023-02-15T03:29:51;81.90;;;33.27;;
4377;SDS011;2203;53.686;9.994;2023-02-15T03:32:18;86.23;;;33.37;;
4377;SDS011;2203;53.686;9.994;2023-02-15T03:34:44;87.47;;;33.80;;
4377;SDS011;2203;53.686;9.994;2023-02-15T03:40:23;92.20;;;33.57;;
4377;SDS011;2203;53.686;9.994;2023-02-15T03:43:13;127.73;;;36.40;;
4377;SDS011;2203;53.686;9.994;2023-02-15T03:45:43;89.97;;;35.47;;
4377;SDS011;2203;53.686;9.994;2023-02-15T03:48:33;102.83;;;35.20;;
4377;SDS011;2203;53.686;9.994;2023-02-15T03:51:07;99.57;;;36.33;;
4377;SDS011;2203;53.686;9.994;2023-02-15T03:53:54;88.00;;;34.40;;
4377;SDS011;2203;53.686;9.994;2023-02-15T03:56:20;93.20;;;36.50;;
4377;SDS011;2203;53.686;9.994;2023-02-15T03:58:45;85.60;;;34.33;;
4377;SDS011;2203;53.686;9.994;2023-02-15T04:04:24;82.07;;;31.77;;
4377;SDS011;2203;53.686;9.994;2023-02-15T04:06:51;74.80;;;33.50;;
4377;SDS011;2203;53.686;9.994;2023-02-15T04:09:17;90.23;;;33.77;;
4377;SDS011;2203;53.686;9.994;2023-02-15T04:12:01;84.77;;;35.20;;
4377;SDS011;2203;53.686;9.994;2023-02-15T04:14:26;84.33;;;34.17;;
4377;SDS011;2203;53.686;9.994;2023-02-15T04:17:10;96.47;;;34.23;;
4377;SDS011;2203;53.686;9.994;2023-02-15T04:19:35;100.87;;;34.10;;
4377;SDS011;2203;53.686;9.994;2023-02-15T04:22:19;119.37;;;34.57;;
4377;SDS011;2203;53.686;9.994;2023-02-15T04:25:03;90.37;;;35.47;;
4377;SDS011;2203;53.686;9.994;2023-02-15T04:27:36;81.73;;;34.73;;
4377;SDS011;2203;53.686;9.994;2023-02-15T04:30:02;78.63;;;31.07;;
4377;SDS011;2203;53.686;9.994;2023-02-15T04:32:28;71.40;;;30.73;;
4377;SDS011;2203;53.686;9.994;2023-02-15T04:34:53;86.33;;;32.60;;
4377;SDS011;2203;53.686;9.994;2023-02-15T04:37:18;78.40;;;29.93;;
4377;SDS011;2203;53.686;9.994;2023-02-15T04:39:44;79.70;;;31.90;;
4377;SDS011;2203;53.686;9.994;2023-02-15T04:42:09;95.30;;;33.60;;
4377;SDS011;2203;53.686;9.994;2023-02-15T04:44:35;86.67;;;34.83;;
4377;SDS011;2203;53.686;9.994;2023-02-15T04:47:00;100.77;;;33.73;;
4377;SDS011;2203;53.686;9.994;2023-02-15T04:49:25;88.77;;;33.10;;
4377;SDS011;2203;53.686;9.994;2023-02-15T04:51:51;80.97;;;34.23;;
4377;SDS011;2203;53.686;9.994;2023-02-15T04:54:16;93.43;;;33.43;;
4377;SDS011;2203;53.686;9.994;2023-02-15T04:56:42;91.07;;;36.40;;
4377;SDS011;2203;53.686;9.994;2023-02-15T04:59:10;90.73;;;32.27;;
4377;SDS011;2203;53.686;9.994;2023-02-15T05:01:36;77.43;;;32.30;;
4377;SDS011;2203;53.686;9.994;2023-02-15T05:04:01;102.13;;;29.13;;
4377;SDS011;2203;53.686;9.994;2023-02-15T05:06:27;103.70;;;28.33;;
4377;SDS011;2203;53.686;9.994;2023-02-15T05:08:53;93.97;;;29.90;;
4377;SDS011;2203;53.686;9.994;2023-02-15T05:11:18;96.57;;;32.83;;
4377;SDS011;2203;53.686;9.994;2023-02-15T05:13:44;81.37;;;31.07;;
4377;SDS011;2203;53.686;9.994;2023-02-15T05:16:09;72.53;;;30.37;;
4377;SDS011;2203;53.686;9.994;2023-02-15T05:18:34;93.07;;;31.20;;
4377;SDS011;2203;53.686;9.994;2023-02-15T05:21:00;86.53;;;29.77;;
4377;SDS011;2203;53.686;9.994;2023-02-15T05:23:25;102.10;;;32.27;;
4377;SDS011;2203;53.686;9.994;2023-02-15T05:25:51;67.70;;;28.93;;
4377;SDS011;2203;53.686;9.994;2023-02-15T05:28:35;80.53;;;31.57;;
4377;SDS011;2203;53.686;9.994;2023-02-15T05:33:35;76.37;;;31.50;;
4377;SDS011;2203;53.686;9.994;2023-02-15T05:36:01;70.20;;;31.13;;
4377;SDS011;2203;53.686;9.994;2023-02-15T05:38:27;70.87;;;30.60;;
4377;SDS011;2203;53.686;9.994;2023-02-15T05:40:52;72.30;;;29.73;;
4377;SDS011;2203;53.686;9.994;2023-02-15T05:43:19;78.80;;;30.93;;
4377;SDS011;2203;53.686;9.994;2023-02-15T05:45:45;71.83;;;30.50;;
4377;SDS011;2203;53.686;9.994;2023-02-15T05:48:18;76.80;;;31.37;;
4377;SDS011;2203;53.686;9.994;2023-02-15T05:50:44;94.13;;;30.07;;
4377;SDS011;2203;53.686;9.994;2023-02-15T05:53:10;85.33;;;31.50;;
4377;SDS011;2203;53.686;9.994;2023-02-15T05:55:38;93.40;;;32.43;;
4377;SDS011;2203;53.686;9.994;2023-02-15T05:58:04;87.40;;;28.90;;
4377;SDS011;2203;53.686;9.994;2023-02-15T06:00:30;64.77;;;29.13;;
4377;SDS011;2203;53.686;9.994;2023-02-15T06:02:56;67.37;;;29.30;;
4377;SDS011;2203;53.686;9.994;2023-02-15T06:05:21;74.43;;;28.73;;
4377;SDS011;2203;53.686;9.994;2023-02-15T06:07:47;76.33;;;30.30;;
4377;SDS011;2203;53.686;9.994;2023-02-15T06:10:13;106.40;;;30.27;;
4377;SDS011;2203;53.686;9.994;2023-02-15T06:12:38;97.80;;;31.70;;
4377;SDS011;2203;53.686;9.994;2023-02-15T06:15:03;72.63;;;30.43;;
4377;SDS011;2203;53.686;9.994;2023-02-15T06:17:29;141.37;;;32.57;;
4377;SDS011;2203;53.686;9.994;2023-02-15T06:19:55;86.30;;;31.20;;
4377;SDS011;2203;53.686;9.994;2023-02-15T06:22:20;89.40;;;31.53;;
4377;SDS011;2203;53.686;9.994;2023-02-15T06:24:46;144.77;;;31.80;;
4377;SDS011;2203;53.686;9.994;2023-02-15T06:27:11;97.90;;;30.83;;
4377;SDS011;2203;53.686;9.994;2023-02-15T06:29:37;87.03;;;31.60;;
4377;SDS011;2203;53.686;9.994;2023-02-15T06:32:02;97.77;;;34.20;;
4377;SDS011;2203;53.686;9.994;2023-02-15T06:34:28;92.87;;;31.87;;
4377;SDS011;2203;53.686;9.994;2023-02-15T06:36:53;76.63;;;31.63;;
4377;SDS011;2203;53.686;9.994;2023-02-15T06:39:19;111.10;;;31.70;;
4377;SDS011;2203;53.686;9.994;2023-02-15T06:41:44;76.30;;;28.77;;
4377;SDS011;2203;53.686;9.994;2023-02-15T06:44:09;56.07;;;26.27;;
4377;SDS011;2203;53.686;9.994;2023-02-15T06:46:35;107.63;;;29.20;;
4377;SDS011;2203;53.686;9.994;2023-02-15T06:49:00;93.63;;;30.90;;
4377;SDS011;2203;53.686;9.994;2023-02-15T06:51:26;80.97;;;30.87;;
4377;SDS011;2203;53.686;9.994;2023-02-15T06:53:51;71.23;;;30.37;;
4377;SDS011;2203;53.686;9.994;2023-02-15T06:56:16;99.77;;;30.10;;
4377;SDS011;2203;53.686;9.994;2023-02-15T06:58:42;71.93;;;30.60;;
4377;SDS011;2203;53.686;9.994;2023-02-15T07:01:10;91.47;;;30.20;;
4377;SDS011;2203;53.686;9.994;2023-02-15T07:03:36;76.00;;;31.30;;
4377;SDS011;2203;53.686;9.994;2023-02-15T07:06:02;92.17;;;31.07;;
4377;SDS011;2203;53.686;9.994;2023-02-15T07:08:30;149.90;;;31.67;;
4377;SDS011;2203;53.686;9.994;2023-02-15T07:10:56;67.47;;;29.37;;
4377;SDS011;2203;53.686;9.994;2023-02-15T07:13:41;93.40;;;29.70;;
4377;SDS011;2203;53.686;9.994;2023-02-15T07:16:10;67.17;;;31.87;;
4377;SDS011;2203;53.686;9.994;2023-02-15T07:18:35;83.57;;;28.47;;
4377;SDS011;2203;53.686;9.994;2023-02-15T07:21:01;87.43;;;29.83;;
4377;SDS011;2203;53.686;9.994;2023-02-15T07:23:27;66.87;;;28.60;;
4377;SDS011;2203;53.686;9.994;2023-02-15T07:25:56;62.27;;;28.40;;
4377;SDS011;2203;53.686;9.994;2023-02-15T07:28:22;102.20;;;28.63;;
4377;SDS011;2203;53.686;9.994;2023-02-15T07:30:48;113.60;;;29.57;;
4377;SDS011;2203;53.686;9.994;2023-02-15T07:33:13;90.03;;;28.37;;
4377;SDS011;2203;53.686;9.994;2023-02-15T07:35:51;114.77;;;28.77;;
4377;SDS011;2203;53.686;9.994;2023-02-15T07:38:20;71.67;;;28.60;;
4377;SDS011;2203;53.686;9.994;2023-02-15T07:40:46;70.00;;;28.60;;
4377;SDS011;2203;53.686;9.994;2023-02-15T07:43:12;72.60;;;29.60;;
4377;SDS011;2203;53.686;9.994;2023-02-15T07:45:38;74.17;;;28.33;;
4377;SDS011;2203;53.686;9.994;2023-02-15T07:48:04;78.10;;;28.90;;
4377;SDS011;2203;53.686;9.994;2023-02-15T07:50:30;73.07;;;27.83;;
4377;SDS011;2203;53.686;9.994;2023-02-15T07:52:56;77.37;;;29.37;;
4377;SDS011;2203;53.686;9.994;2023-02-15T07:55:21;72.73;;;29.13;;
4377;SDS011;2203;53.686;9.994;2023-02-15T07:57:47;96.43;;;29.33;;
4377;SDS011;2203;53.686;9.994;2023-02-15T08:00:14;75.53;;;28.10;;
4377;SDS011;2203;53.686;9.994;2023-02-15T08:02:41;63.57;;;28.93;;
4377;SDS011;2203;53.686;9.994;2023-02-15T08:05:07;65.93;;;28.93;;
4377;SDS011;2203;53.686;9.994;2023-02-15T08:07:32;108.33;;;29.33;;
4377;SDS011;2203;53.686;9.994;2023-02-15T08:09:58;68.63;;;29.10;;
4377;SDS011;2203;53.686;9.994;2023-02-15T08:12:25;71.33;;;27.57;;
4377;SDS011;2203;53.686;9.994;2023-02-15T08:14:51;110.50;;;30.23;;
4377;SDS011;2203;53.686;9.994;2023-02-15T08:17:17;69.40;;;28.37;;
4377;SDS011;2203;53.686;9.994;2023-02-15T08:19:43;75.73;;;30.50;;
4377;SDS011;2203;53.686;9.994;2023-02-15T08:22:11;85.03;;;31.37;;
4377;SDS011;2203;53.686;9.994;2023-02-15T08:24:38;73.00;;;30.30;;
4377;SDS011;2203;53.686;9.994;2023-02-15T08:27:03;78.63;;;32.63;;
4377;SDS011;2203;53.686;9.994;2023-02-15T08:29:30;89.53;;;32.10;;
4377;SDS011;2203;53.686;9.994;2023-02-15T08:31:57;76.07;;;33.17;;
4377;SDS011;2203;53.686;9.994;2023-02-15T08:34:27;82.80;;;31.60;;
4377;SDS011;2203;53.686;9.994;2023-02-15T08:36:53;150.33;;;31.53;;
4377;SDS011;2203;53.686;9.994;2023-02-15T08:39:19;67.60;;;30.27;;
4377;SDS011;2203;53.686;9.994;2023-02-15T08:41:46;69.07;;;31.27;;
4377;SDS011;2203;53.686;9.994;2023-02-15T08:44:12;94.20;;;35.43;;
4377;SDS011;2203;53.686;9.994;2023-02-15T08:46:41;93.73;;;32.50;;
4377;SDS011;2203;53.686;9.994;2023-02-15T08:49:08;85.87;;;31.17;;
4377;SDS011;2203;53.686;9.994;2023-02-15T08:51:35;78.43;;;31.30;;
4377;SDS011;2203;53.686;9.994;2023-02-15T08:54:03;71.33;;;31.57;;
4377;SDS011;2203;53.686;9.994;2023-02-15T08:56:35;88.43;;;31.50;;
4377;SDS011;2203;53.686;9.994;2023-02-15T08:59:02;70.13;;;29.93;;
4377;SDS011;2203;53.686;9.994;2023-02-15T09:01:28;73.80;;;31.67;;
4377;SDS011;2203;53.686;9.994;2023-02-15T09:03:56;64.87;;;30.43;;
4377;SDS011;2203;53.686;9.994;2023-02-15T09:06:25;85.37;;;31.27;;
4377;SDS011;2203;53.686;9.994;2023-02-15T09:08:51;71.93;;;32.40;;
4377;SDS011;2203;53.686;9.994;2023-02-15T09:11:18;72.03;;;30.07;;
4377;SDS011;2203;53.686;9.994;2023-02-15T09:13:53;79.10;;;28.93;;
4377;SDS011;2203;53.686;9.994;2023-02-15T09:16:23;65.33;;;30.47;;
4377;SDS011;2203;53.686;9.994;2023-02-15T09:18:50;65.93;;;29.63;;
4377;SDS011;2203;53.686;9.994;2023-02-15T09:21:17;91.17;;;30.50;;
4377;SDS011;2203;53.686;9.994;2023-02-15T09:23:45;72.00;;;32.60;;
4377;SDS011;2203;53.686;9.994;2023-02-15T09:26:14;73.03;;;32.50;;
4377;SDS011;2203;53.686;9.994;2023-02-15T09:28:42;71.57;;;30.53;;
4377;SDS011;2203;53.686;9.994;2023-02-15T09:33:40;74.27;;;32.27;;
4377;SDS011;2203;53.686;9.994;2023-02-15T09:36:13;78.27;;;31.37;;
4377;SDS011;2203;53.686;9.994;2023-02-15T09:38:40;82.80;;;35.50;;
4377;SDS011;2203;53.686;9.994;2023-02-15T09:41:10;77.83;;;32.63;;
4377;SDS011;2203;53.686;9.994;2023-02-15T09:46:34;76.43;;;33.20;;
4377;SDS011;2203;53.686;9.994;2023-02-15T09:49:53;112.90;;;34.47;;
4377;SDS011;2203;53.686;9.994;2023-02-15T10:02:40;79.37;;;35.80;;
4377;SDS011;2203;53.686;9.994;2023-02-15T10:08:11;86.03;;;35.70;;
4377;SDS011;2203;53.686;9.994;2023-02-15T10:11:23;87.50;;;34.70;;
4377;SDS011;2203;53.686;9.994;2023-02-15T10:16:31;96.23;;;38.63;;
4377;SDS011;2203;53.686;9.994;2023-02-15T10:19:07;80.33;;;34.87;;
4377;SDS011;2203;53.686;9.994;2023-02-15T10:26:49;84.90;;;35.70;;
4377;SDS011;2203;53.686;9.994;2023-02-15T10:34:48;99.97;;;39.77;;
4377;SDS011;2203;53.686;9.994;2023-02-15T10:37:40;96.47;;;38.50;;
4377;SDS011;2203;53.686;9.994;2023-02-15T10:40:20;98.10;;;40.97;;
4377;SDS011;2203;53.686;9.994;2023-02-15T10:43:05;99.90;;;41.10;;
4377;SDS011;2203;53.686;9.994;2023-02-15T10:57:04;87.47;;;37.00;;
4377;SDS011;2203;53.686;9.994;2023-02-15T10:59:53;80.57;;;37.33;;
4377;SDS011;2203;53.686;9.994;2023-02-15T11:05:33;87.03;;;37.20;;
4377;SDS011;2203;53.686;9.994;2023-02-15T11:08:04;94.57;;;38.97;;
4377;SDS011;2203;53.686;9.994;2023-02-15T11:10:39;84.90;;;37.67;;
4377;SDS011;2203;53.686;9.994;2023-02-15T11:13:14;89.07;;;39.00;;
4377;SDS011;2203;53.686;9.994;2023-02-15T11:18:24;93.90;;;40.10;;
4377;SDS011;2203;53.686;9.994;2023-02-15T11:23:28;90.60;;;39.97;;
4377;SDS011;2203;53.686;9.994;2023-02-15T11:25:58;93.97;;;37.80;;
4377;SDS011;2203;53.686;9.994;2023-02-15T11:28:33;93.37;;;39.37;;
4377;SDS011;2203;53.686;9.994;2023-02-15T11:31:02;105.43;;;43.10;;
4377;SDS011;2203;53.686;9.994;2023-02-15T11:33:35;99.57;;;39.77;;
4377;SDS011;2203;53.686;9.994;2023-02-15T11:36:06;111.77;;;40.67;;
4377;SDS011;2203;53.686;9.994;2023-02-15T11:38:34;99.20;;;39.73;;
4377;SDS011;2203;53.686;9.994;2023-02-15T11:41:02;93.53;;;39.93;;
4377;SDS011;2203;53.686;9.994;2023-02-15T11:45:55;92.87;;;38.90;;
4377;SDS011;2203;53.686;9.994;2023-02-15T11:48:21;100.03;;;42.27;;
4377;SDS011;2203;53.686;9.994;2023-02-15T11:50:47;96.00;;;42.30;;
4377;SDS011;2203;53.686;9.994;2023-02-15T11:53:14;99.40;;;42.70;;
4377;SDS011;2203;53.686;9.994;2023-02-15T11:55:43;105.37;;;42.10;;
4377;SDS011;2203;53.686;9.994;2023-02-15T11:58:22;90.60;;;40.63;;
4377;SDS011;2203;53.686;9.994;2023-02-15T12:01:06;98.77;;;40.60;;
4377;SDS011;2203;53.686;9.994;2023-02-15T12:03:50;93.90;;;40.80;;
4377;SDS011;2203;53.686;9.994;2023-02-15T12:06:18;105.13;;;45.00;;
4377;SDS011;2203;53.686;9.994;2023-02-15T12:09:34;125.10;;;46.20;;
4377;SDS011;2203;53.686;9.994;2023-02-15T12:11:46;98.77;;;41.07;;
4377;SDS011;2203;53.686;9.994;2023-02-15T12:14:12;106.07;;;42.87;;
4377;SDS011;2203;53.686;9.994;2023-02-15T12:16:42;100.77;;;44.03;;
4377;SDS011;2203;53.686;9.994;2023-02-15T12:19:50;101.00;;;41.77;;
4377;SDS011;2203;53.686;9.994;2023-02-15T12:22:04;107.10;;;43.90;;
4377;SDS011;2203;53.686;9.994;2023-02-15T12:24:32;97.73;;;38.87;;
4377;SDS011;2203;53.686;9.994;2023-02-15T12:27:23;105.30;;;43.23;;
4377;SDS011;2203;53.686;9.994;2023-02-15T12:29:56;100.20;;;42.90;;
4377;SDS011;2203;53.686;9.994;2023-02-15T12:32:34;99.70;;;41.63;;
4377;SDS011;2203;53.686;9.994;2023-02-15T12:35:07;95.50;;;40.07;;
4377;SDS011;2203;53.686;9.994;2023-02-15T12:37:34;95.20;;;43.30;;
4377;SDS011;2203;53.686;9.994;2023-02-15T12:40:02;96.33;;;42.73;;
4377;SDS011;2203;53.686;9.994;2023-02-15T12:42:43;98.60;;;40.50;;
4377;SDS011;2203;53.686;9.994;2023-02-15T12:45:20;97.93;;;40.70;;
4377;SDS011;2203;53.686;9.994;2023-02-15T12:48:07;98.43;;;39.90;;
4377;SDS011;2203;53.686;9.994;2023-02-15T12:50:33;93.50;;;39.30;;
4377;SDS011;2203;53.686;9.994;2023-02-15T12:53:06;96.27;;;39.33;;
4377;SDS011;2203;53.686;9.994;2023-02-15T12:55:33;86.43;;;39.60;;
4377;SDS011;2203;53.686;9.994;2023-02-15T12:58:32;89.20;;;40.10;;
4377;SDS011;2203;53.686;9.994;2023-02-15T13:01:04;86.80;;;38.93;;
4377;SDS011;2203;53.686;9.994;2023-02-15T13:03:34;87.70;;;40.00;;
4377;SDS011;2203;53.686;9.994;2023-02-15T13:06:00;88.87;;;38.73;;
4377;SDS011;2203;53.686;9.994;2023-02-15T13:13:21;88.80;;;38.80;;
4377;SDS011;2203;53.686;9.994;2023-02-15T13:15:50;92.30;;;39.17;;
4377;SDS011;2203;53.686;9.994;2023-02-15T13:18:26;79.17;;;39.67;;
4377;SDS011;2203;53.686;9.994;2023-02-15T13:20:55;88.93;;;38.50;;
4377;SDS011;2203;53.686;9.994;2023-02-15T13:23:27;87.43;;;38.23;;
4377;SDS011;2203;53.686;9.994;2023-02-15T13:25:54;83.33;;;40.10;;
4377;SDS011;2203;53.686;9.994;2023-02-15T13:28:22;89.50;;;39.57;;
4377;SDS011;2203;53.686;9.994;2023-02-15T13:30:51;81.43;;;37.77;;
4377;SDS011;2203;53.686;9.994;2023-02-15T13:33:33;87.20;;;40.10;;
4377;SDS011;2203;53.686;9.994;2023-02-15T13:36:12;85.87;;;38.57;;
4377;SDS011;2203;53.686;9.994;2023-02-15T13:41:34;84.10;;;39.87;;
4377;SDS011;2203;53.686;9.994;2023-02-15T13:47:21;90.43;;;38.07;;
4377;SDS011;2203;53.686;9.994;2023-02-15T13:52:40;90.63;;;39.70;;
4377;SDS011;2203;53.686;9.994;2023-02-15T14:00:22;102.43;;;38.50;;
4377;SDS011;2203;53.686;9.994;2023-02-15T14:14:19;76.37;;;37.17;;
4377;SDS011;2203;53.686;9.994;2023-02-15T14:16:56;83.40;;;42.30;;
4377;SDS011;2203;53.686;9.994;2023-02-15T14:30:27;74.20;;;35.57;;
4377;SDS011;2203;53.686;9.994;2023-02-15T14:32:56;88.90;;;37.13;;
4377;SDS011;2203;53.686;9.994;2023-02-15T14:35:28;79.23;;;38.60;;
4377;SDS011;2203;53.686;9.994;2023-02-15T14:38:11;78.70;;;38.30;;
4377;SDS011;2203;53.686;9.994;2023-02-15T14:48:55;69.03;;;36.57;;
4377;SDS011;2203;53.686;9.994;2023-02-15T14:54:10;71.23;;;37.20;;
4377;SDS011;2203;53.686;9.994;2023-02-15T14:59:26;72.67;;;37.70;;
4377;SDS011;2203;53.686;9.994;2023-02-15T15:01:58;81.83;;;40.07;;
4377;SDS011;2203;53.686;9.994;2023-02-15T15:04:30;69.53;;;37.10;;
4377;SDS011;2203;53.686;9.994;2023-02-15T15:07:02;78.13;;;39.37;;
4377;SDS011;2203;53.686;9.994;2023-02-15T15:09:33;82.37;;;37.57;;
4377;SDS011;2203;53.686;9.994;2023-02-15T15:12:37;73.10;;;37.23;;
4377;SDS011;2203;53.686;9.994;2023-02-15T15:14:58;74.07;;;39.40;;
4377;SDS011;2203;53.686;9.994;2023-02-15T15:18:09;78.40;;;37.83;;
4377;SDS011;2203;53.686;9.994;2023-02-15T15:28:52;82.43;;;36.37;;
4377;SDS011;2203;53.686;9.994;2023-02-15T15:30:55;72.87;;;35.63;;
4377;SDS011;2203;53.686;9.994;2023-02-15T15:33:38;67.67;;;37.33;;
4377;SDS011;2203;53.686;9.994;2023-02-15T15:42:39;66.07;;;34.33;;
4377;SDS011;2203;53.686;9.994;2023-02-15T15:48:31;71.53;;;36.30;;
4377;SDS011;2203;53.686;9.994;2023-02-15T15:51:03;72.70;;;35.80;;
4377;SDS011;2203;53.686;9.994;2023-02-15T15:53:32;68.70;;;35.77;;
4377;SDS011;2203;53.686;9.994;2023-02-15T15:56:04;74.40;;;37.00;;
4377;SDS011;2203;53.686;9.994;2023-02-15T15:58:31;77.13;;;35.17;;
4377;SDS011;2203;53.686;9.994;2023-02-15T16:03:29;67.70;;;34.70;;
4377;SDS011;2203;53.686;9.994;2023-02-15T16:05:55;71.73;;;35.87;;
4377;SDS011;2203;53.686;9.994;2023-02-15T16:08:34;75.73;;;35.00;;
4377;SDS011;2203;53.686;9.994;2023-02-15T16:11:24;73.17;;;36.07;;
4377;SDS011;2203;53.686;9.994;2023-02-15T16:13:49;65.07;;;34.33;;
4377;SDS011;2203;53.686;9.994;2023-02-15T16:16:19;63.97;;;33.87;;
4377;SDS011;2203;53.686;9.994;2023-02-15T16:18:46;69.43;;;33.00;;
4377;SDS011;2203;53.686;9.994;2023-02-15T16:21:17;62.13;;;31.67;;
4377;SDS011;2203;53.686;9.994;2023-02-15T16:29:00;59.33;;;30.27;;
4377;SDS011;2203;53.686;9.994;2023-02-15T16:31:26;55.63;;;29.10;;
4377;SDS011;2203;53.686;9.994;2023-02-15T16:33:52;53.20;;;28.87;;
4377;SDS011;2203;53.686;9.994;2023-02-15T16:36:27;53.43;;;28.70;;
4377;SDS011;2203;53.686;9.994;2023-02-15T16:41:25;54.13;;;27.23;;
4377;SDS011;2203;53.686;9.994;2023-02-15T16:44:05;53.37;;;27.80;;
4377;SDS011;2203;53.686;9.994;2023-02-15T16:46:35;49.03;;;25.60;;
4377;SDS011;2203;53.686;9.994;2023-02-15T16:49:02;58.10;;;28.13;;
4377;SDS011;2203;53.686;9.994;2023-02-15T16:51:31;44.83;;;26.03;;
4377;SDS011;2203;53.686;9.994;2023-02-15T16:54:00;54.27;;;27.87;;
4377;SDS011;2203;53.686;9.994;2023-02-15T16:56:30;48.93;;;27.67;;
4377;SDS011;2203;53.686;9.994;2023-02-15T16:58:57;53.43;;;27.40;;
4377;SDS011;2203;53.686;9.994;2023-02-15T17:01:24;50.33;;;26.80;;
4377;SDS011;2203;53.686;9.994;2023-02-15T17:04:12;53.73;;;27.10;;
4377;SDS011;2203;53.686;9.994;2023-02-15T17:07:06;46.53;;;26.90;;
4377;SDS011;2203;53.686;9.994;2023-02-15T17:09:48;52.43;;;26.70;;
4377;SDS011;2203;53.686;9.994;2023-02-15T17:12:35;50.27;;;27.17;;
4377;SDS011;2203;53.686;9.994;2023-02-15T17:15:36;53.53;;;27.20;;
4377;SDS011;2203;53.686;9.994;2023-02-15T17:18:04;50.00;;;26.33;;
4377;SDS011;2203;53.686;9.994;2023-02-15T17:20:31;54.57;;;28.40;;
4377;SDS011;2203;53.686;9.994;2023-02-15T17:22:58;49.30;;;27.00;;
4377;SDS011;2203;53.686;9.994;2023-02-15T17:25:26;48.60;;;26.70;;
4377;SDS011;2203;53.686;9.994;2023-02-15T17:27:57;49.70;;;26.40;;
4377;SDS011;2203;53.686;9.994;2023-02-15T17:30:30;57.03;;;26.50;;
4377;SDS011;2203;53.686;9.994;2023-02-15T17:32:57;44.83;;;25.87;;
4377;SDS011;2203;53.686;9.994;2023-02-15T17:37:59;45.03;;;24.63;;
4377;SDS011;2203;53.686;9.994;2023-02-15T17:40:30;53.07;;;26.17;;
4377;SDS011;2203;53.686;9.994;2023-02-15T17:42:57;51.20;;;26.47;;
4377;SDS011;2203;53.686;9.994;2023-02-15T17:45:24;47.53;;;25.73;;
4377;SDS011;2203;53.686;9.994;2023-02-15T17:47:56;46.57;;;25.70;;
4377;SDS011;2203;53.686;9.994;2023-02-15T17:50:24;45.77;;;26.00;;
4377;SDS011;2203;53.686;9.994;2023-02-15T17:52:51;47.23;;;25.70;;
4377;SDS011;2203;53.686;9.994;2023-02-15T17:55:18;47.80;;;24.80;;
4377;SDS011;2203;53.686;9.994;2023-02-15T17:58:12;50.03;;;25.17;;
4377;SDS011;2203;53.686;9.994;2023-02-15T18:00:46;48.30;;;25.60;;
4377;SDS011;2203;53.686;9.994;2023-02-15T18:03:48;43.37;;;23.50;;